San Marcos Station Data

Red Flag Warning: No
Fire Weather Zone: 243
SDGE Region: North East
Lat/Lon: 33.129/-117.192

Observations

Time Wind Speed/Gust Temp(F) RH Fuel Moist Fuel Temp(F) Dewpt(F) Tmax(F) Tmin(F) Accum Precip 10-min Precip SL Press(mb)
3/29 8:00am 94 0 G 2 56° 61% - - 42° 57.5° 46.6° - - -
3/29 7:50am 124 1 G 3 54° 64% - - 42° 54.7° 46.6° - - -
3/29 7:40am 153 1 G 1 52° 68% - - 42° 54.4° 46.6° - - -
3/29 7:30am 312 1 G 2 51° 70% - - 41° 54.4° 46.6° - - -
3/29 7:20am 153 0 G 1 50° 71% - - 41° 54.4° 46.6° - - -
3/29 7:10am 92 1 G 2 49° 74% - - 41° 54.4° 46.6° - - -
3/29 7:00am 188 2 G 3 49° 74% - - 41° 54.4° 46.6° - - -
3/29 6:50am 256 1 G 2 49° 72% - - 41° 54.4° 46.6° - - -
3/29 6:40am 86 2 G 5 50° 72% - - 41° 54.4° 46.6° - - -
3/29 6:30am 111 4 G 6 50° 72% - - 41° 54.4° 46.6° - - -
3/29 6:20am 125 1 G 4 47° 78% - - 41° 54.4° 46.6° - - -
3/29 6:10am 119 1 G 2 48° 77% - - 41° 54.4° 47.3° - - -
3/29 6:00am 126 1 G 2 48° 77% - - 41° 54.4° 47.6° - - -
3/29 5:50am 185 1 G 2 49° 75% - - 41° 54.4° 47.8° - - -
3/29 5:40am 119 1 G 2 48° 77% - - 42° 54.4° 47.8° - - -
3/29 5:30am 178 1 G 2 48° 78% - - 42° 54.4° 47.8° - - -
3/29 5:20am 220 1 G 3 48° 75% - - 41° 54.4° 47.8° - - -
3/29 5:10am 144 3 G 4 49° 74% - - 41° 54.4° 48.6° - - -
3/29 5:00am 47 2 G 4 50° 74% - - 42° 54.4° 48.7° - - -
3/29 4:50am 55 3 G 6 49° 73% - - 41° 54.4° 48.7° - - -
3/29 4:40am 38 1 G 3 49° 73% - - 41° 54.4° 48.7° - - -
3/29 4:30am 10 0 G 3 50° 70% - - 41° 54.4° 49.1° - - -
3/29 4:20am 97 1 G 3 50° 72% - - 41° 54.4° 49.1° - - -
3/29 4:10am 189 0 G 1 50° 72% - - 41° 54.4° 49.3° - - -
3/29 4:00am 108 0 G 1 50° 72% - - 41° 54.4° 49.3° - - -
3/29 3:50am 97 1 G 1 50° 73% - - 42° 54.4° 49.3° - - -
3/29 3:40am 72 1 G 2 50° 74% - - 42° 54.4° 49.3° - - -
3/29 3:30am 63 1 G 1 50° 73% - - 42° 54.4° 49.5° - - -
3/29 3:20am 77 1 G 2 51° 71% - - 42° 54.4° 50.3° - - -
3/29 3:10am 47 2 G 4 52° 69% - - 42° 54.4° 50.6° - - -
3/29 3:00am 60 1 G 2 52° 68% - - 42° 54.4° 50.6° - - -
3/29 2:50am 98 1 G 3 52° 68% - - 42° 54.4° 50.6° - - -
3/29 2:40am 101 2 G 4 52° 68% - - 42° 54.4° 50.6° - - -
3/29 2:30am 68 2 G 3 52° 69% - - 42° 54.4° 50.6° - - -
3/29 2:20am 90 2 G 4 53° 68% - - 42° 54.4° 50.6° - - -
3/29 2:10am 81 3 G 5 53° 68% - - 42° 54.4° 50.6° - - -
3/29 2:00am 117 1 G 4 52° 68% - - 42° 54.4° 50.6° - - -
3/29 1:50am 109 2 G 4 52° 69% - - 42° 54.4° 50.6° - - -
3/29 1:40am 85 2 G 3 51° 71% - - 42° 54.4° 50.6° - - -
3/29 1:30am 122 1 G 2 51° 70% - - 42° 54.4° 50.6° - - -
3/29 1:20am 183 1 G 2 52° 67% - - 41° 54.4° 50.8° - - -
3/29 1:10am 74 1 G 3 53° 66% - - 42° 54.4° 52.4° - - -
3/29 1:00am 80 1 G 5 54° 66% - - 42° 54.4° 52.9° - - -
3/29 12:50am 107 2 G 4 53° 65% - - 42° 54.4° 52.9° - - -
3/29 12:40am 127 1 G 5 54° 64% - - 42° 54.4° 52.9° - - -
3/29 12:30am 108 1 G 4 53° 64% - - 42° 54.2° 52.9° - - -
3/29 12:20am 46 1 G 3 53° 66% - - 42° 54.2° 52.9° - - -
3/29 12:10am 68 2 G 3 53° 64% - - 41° 53.7° 52.9° - - -
3/29 12:00am 136 1 G 2 53° 63% - - 40° 69.7° 47.1° - - -
3/28 11:50pm 111 1 G 2 52° 65% - - 41° 69.7° 47.1° - - -
3/28 11:40pm 104 2 G 3 53° 60% - - 40° 69.7° 47.1° - - -
3/28 11:30pm 115 2 G 2 53° 62% - - 40° 69.7° 47.1° - - -
3/28 11:20pm 108 2 G 3 53° 62% - - 41° 69.7° 47.1° - - -
3/28 11:10pm 159 1 G 2 54° 63% - - 41° 69.7° 47.1° - - -
3/28 11:00pm 126 0 G 1 54° 62% - - 41° 69.7° 47.1° - - -
3/28 10:50pm 114 2 G 4 55° 61% - - 41° 69.7° 47.1° - - -
3/28 10:40pm 124 2 G 3 55° 60% - - 42° 69.7° 47.1° - - -
3/28 10:30pm 117 2 G 3 55° 61% - - 42° 69.7° 47.1° - - -
3/28 10:20pm 172 1 G 2 55° 61% - - 42° 69.7° 47.1° - - -
3/28 10:10pm 198 0 G 1 56° 60% - - 42° 69.7° 47.1° - - -
3/28 10:00pm 188 1 G 2 56° 60% - - 42° 69.7° 47.1° - - -
3/28 9:50pm 211 1 G 2 57° 60% - - 43° 69.7° 47.1° - - -
3/28 9:40pm 117 1 G 2 57° 59% - - 43° 69.7° 47.1° - - -
3/28 9:30pm 105 1 G 2 56° 61% - - 43° 69.7° 47.1° - - -
3/28 9:20pm 339 0 G 1 57° 60% - - 43° 69.7° 47.1° - - -
3/28 9:10pm 86 2 G 3 58° 57% - - 43° 69.7° 47.1° - - -
3/28 9:00pm 121 3 G 4 58° 57% - - 43° 69.7° 47.1° - - -
3/28 8:50pm 109 4 G 5 58° 57% - - 43° 69.7° 47.1° - - -
3/28 8:40pm 125 2 G 4 59° 56% - - 43° 69.7° 47.1° - - -
3/28 8:30pm 124 2 G 4 59° 55% - - 43° 69.7° 47.1° - - -
3/28 8:20pm 118 3 G 4 60° 53% - - 43° 69.7° 47.1° - - -
3/28 8:10pm 127 2 G 3 60° 53% - - 43° 69.7° 47.1° - - -
3/28 8:00pm 185 2 G 3 61° 52% - - 43° 69.7° 47.1° - - -
3/28 7:50pm 182 2 G 3 61° 51% - - 43° 69.7° 47.1° - - -
3/28 7:40pm 200 2 G 3 62° 50% - - 43° 69.7° 47.1° - - -
3/28 7:30pm 178 2 G 3 62° 49% - - 43° 69.7° 47.1° - - -
3/28 7:20pm 236 2 G 3 63° 47% - - 43° 69.7° 47.1° - - -
3/28 7:10pm 249 1 G 3 64° 45% - - 42° 69.7° 47.1° - - -
3/28 7:00pm 226 2 G 5 64° 45% - - 43° 69.7° 47.1° - - -
3/28 6:50pm 242 2 G 6 64° 44% - - 42° 69.7° 47.1° - - -
3/28 6:40pm 220 3 G 6 65° 44% - - 43° 69.7° 47.1° - - -
3/28 6:30pm 267 4 G 7 66° 42% - - 42° 69.7° 47.1° - - -
3/28 6:20pm 257 4 G 8 66° 41% - - 42° 69.7° 47.1° - - -
3/28 6:10pm 239 4 G 9 66° 40% - - 41° 69.7° 47.1° - - -
3/28 6:00pm 249 4 G 7 66° 42% - - 43° 69.7° 47.1° - - -
3/28 5:50pm 261 3 G 8 67° 43% - - 44° 69.7° 47.1° - - -
3/28 5:40pm 249 5 G 9 67° 44% - - 44° 69.7° 47.1° - - -
3/28 5:30pm 244 4 G 8 66° 46% - - 45° 69.7° 47.1° - - -
3/28 5:20pm 240 5 G 11 67° 46% - - 45° 69.7° 47.1° - - -
3/28 5:10pm 248 4 G 9 66° 46% - - 45° 69.7° 47.1° - - -
3/28 5:00pm 241 5 G 10 66° 47% - - 45° 69.7° 47.1° - - -
3/28 4:50pm 257 5 G 10 66° 45% - - 44° 69.7° 47.1° - - -
3/28 4:40pm 264 6 G 12 66° 43% - - 43° 69.7° 47.1° - - -
3/28 4:30pm 276 7 G 14 67° 41% - - 43° 69.7° 47.1° - - -
3/28 4:20pm 274 6 G 11 68° 39% - - 42° 69.7° 47.1° - - -
3/28 4:10pm 260 6 G 10 67° 40% - - 42° 69.7° 47.1° - - -
3/28 4:00pm 271 6 G 12 68° 39% - - 42° 69.7° 47.1° - - -
3/28 3:50pm 267 6 G 10 68° 40% - - 43° 69.7° 47.1° - - -
3/28 3:40pm 267 6 G 11 68° 40% - - 43° 69.7° 47.1° - - -
3/28 3:30pm 278 7 G 13 68° 38% - - 42° 69.7° 47.1° - - -
3/28 3:20pm 253 7 G 14 68° 40% - - 43° 69.7° 47.1° - - -
3/28 3:10pm 258 6 G 11 68° 42% - - 43° 69.7° 47.1° - - -
3/28 3:00pm 264 6 G 11 68° 44% - - 45° 69.7° 47.1° - - -
3/28 2:50pm 239 5 G 11 68° 47% - - 47° 69.7° 47.1° - - -
3/28 2:40pm 252 6 G 15 68° 45% - - 46° 69.7° 47.1° - - -
3/28 2:30pm 233 6 G 10 68° 46% - - 46° 69.7° 47.1° - - -
3/28 2:20pm 234 5 G 12 69° 44% - - 46° 69.7° 47.1° - - -
3/28 2:10pm 238 5 G 14 68° 44% - - 46° 69.7° 47.1° - - -
3/28 2:00pm 233 4 G 8 68° 47% - - 47° 69.7° 47.1° - - -
3/28 1:50pm 230 4 G 11 67° 51% - - 49° 69.7° 47.1° - - -
3/28 1:40pm 235 5 G 9 68° 51% - - 49° 69.7° 47.1° - - -
3/28 1:30pm 252 5 G 11 67° 51% - - 48° 69.7° 47.1° - - -
3/28 1:20pm 265 5 G 11 67° 50% - - 48° 69.7° 47.1° - - -
3/28 1:10pm 260 5 G 10 66° 56% - - 50° 69.7° 47.1° - - -
3/28 1:00pm 281 6 G 9 66° 53% - - 48° 69.7° 47.1° - - -
3/28 12:50pm 255 5 G 10 66° 57% - - 50° 69.7° 47.1° - - -
3/28 12:40pm 249 6 G 10 66° 57% - - 50° 69.7° 47.1° - - -
3/28 12:30pm 266 6 G 11 65° 56% - - 49° 69.7° 47.1° - - -
3/28 12:20pm 268 6 G 11 65° 58% - - 49° 69.7° 47.1° - - -
3/28 12:10pm 270 6 G 11 64° 60% - - 50° 69.7° 47.1° - - -
3/28 12:00pm 250 5 G 10 65° 57% - - 50° 69.7° 47.1° - - -
3/28 11:50am 264 6 G 12 64° 55% - - 48° 69.7° 47.1° - - -
3/28 11:40am 243 6 G 13 65° 50% - - 46° 69.7° 47.1° - - -
3/28 11:30am 258 7 G 12 65° 52% - - 47° 69.7° 47.1° - - -
3/28 11:20am 257 7 G 12 67° 46% - - 45° 69.7° 47.1° - - -
3/28 11:10am 315 6 G 11 69° 33% - - 38° 69.7° 47.1° - - -
3/28 11:00am 357 7 G 13 69° 26% - - 32° 69.4° 47.1° - - -
3/28 10:50am 327 7 G 11 68° 27% - - 32° 68.7° 47.1° - - -
3/28 10:40am 351 7 G 12 67° 28% - - 33° 68° 47.1° - - -
3/28 10:30am 332 8 G 14 67° 28% - - 33° 67.6° 47.1° - - -
3/28 10:20am 337 7 G 15 66° 30% - - 34° 67° 47.1° - - -
3/28 10:10am 351 8 G 13 66° 31% - - 34° 66.4° 47.1° - - -
3/28 10:00am 11 5 G 11 65° 39% - - 39° 66.4° 47.1° - - -
3/28 9:50am 105 2 G 4 64° 48% - - 44° 64.9° 47.1° - - -
3/28 9:40am 151 1 G 4 64° 50% - - 45° 64.8° 47.1° - - -
3/28 9:30am 189 1 G 4 62° 55% - - 46° 63.6° 47.1° - - -
3/28 9:20am 217 1 G 2 60° 60% - - 46° 61.9° 47.1° - - -
3/28 9:10am 314 1 G 3 59° 64% - - 47° 60.4° 47.1° - - -
3/28 9:00am 250 2 G 4 58° 67% - - 47° 60.1° 47.1° - - -
3/28 8:50am 211 1 G 3 59° 68% - - 48° 60.1° 47.1° - - -
3/28 8:40am 138 1 G 2 58° 71% - - 49° 59.2° 47.1° - - -
3/28 8:30am 352 1 G 2 56° 75% - - 48° 57.2° 47.1° - - -
3/28 8:20am 23 1 G 3 55° 76% - - 48° 55.8° 47.1° - - -
3/28 8:10am 77 2 G 3 54° 77% - - 47° 55.1° 47.1° - - -
3/28 8:00am 57 2 G 4 53° 80% - - 47° 54.4° 47.1° - - -
3/28 7:50am 39 2 G 5 52° 81% - - 47° 54.4° 47.1° - - -
3/28 7:40am 73 2 G 7 51° 82% - - 46° 54.4° 47.1° - - -
3/28 7:30am 64 3 G 7 51° 83% - - 46° 54.4° 47.1° - - -
3/28 7:20am 65 4 G 8 50° 85% - - 46° 54.4° 47.1° - - -
3/28 7:10am 66 3 G 7 50° 86% - - 46° 54.4° 47.1° - - -
3/28 7:00am 74 4 G 7 50° 86% - - 46° 54.4° 47.1° - - -
3/28 6:50am 85 4 G 6 49° 88% - - 46° 54.4° 47.1° - - -
3/28 6:40am 105 4 G 6 49° 89% - - 46° 54.4° 47.1° - - -
3/28 6:30am 108 4 G 7 49° 89% - - 46° 54.4° 47.1° - - -
3/28 6:20am 85 4 G 9 48° 90% - - 45° 54.4° 47.1° - - -
3/28 6:10am 76 2 G 4 48° 91% - - 45° 54.4° 47.1° - - -
3/28 6:00am 101 2 G 5 48° 91% - - 45° 54.4° 47.1° - - -